Terminal Aerodrome Forecast
Issued by NWS Bismarck, ND

Home | Current Version | Previous Version | Graphics & Text | Print | Product List | Glossary On
Versions: 1 2 3 4 5 6 7 8 9 10 11 12 13 14 15 16 17 18 19 20 21
000
FTUS43 KBIS 181300 AAA
TAFBIS
TAF AMD
KBIS 181300Z 1813/1912 30009KT P6SM SCT100
     FM181500 33012G20KT P6SM VCTS BKN040CB
     FM182100 32012KT P6SM SCT050
     FM190100 33005KT P6SM SKC=

USA.gov is the U.S. government's official web portal to all federal, state and local government web resources and services.